createdAt,value
2023-04-10T00:00:29.374Z,100948.50
2023-04-10T00:02:56.521Z,100952.19
2023-04-10T00:05:23.568Z,100947.41
2023-04-10T00:07:50.573Z,100954.09
2023-04-10T00:10:17.588Z,100952.13
2023-04-10T00:12:44.470Z,100944.97
2023-04-10T00:15:11.452Z,100954.56
2023-04-10T00:17:39.037Z,100949.34
2023-04-10T00:20:06.380Z,100947.66
2023-04-10T00:22:33.576Z,100949.53
2023-04-10T00:25:00.422Z,100935.03
2023-04-10T00:27:27.288Z,100942.13
2023-04-10T00:29:54.333Z,100936.03
2023-04-10T00:32:21.212Z,100935.22
2023-04-10T00:34:48.125Z,100930.78
2023-04-10T00:37:14.992Z,100937.50
2023-04-10T00:39:41.906Z,100930.34
2023-04-10T00:42:10.130Z,100924.31
2023-04-10T00:44:38.173Z,100919.16
2023-04-10T00:47:05.628Z,100922.91
2023-04-10T00:49:32.688Z,100928.91
2023-04-10T00:51:59.796Z,100926.88
2023-04-10T00:54:27.041Z,100915.66
2023-04-10T00:56:54.056Z,100911.28
2023-04-10T00:59:21.234Z,100906.03
2023-04-10T01:01:48.152Z,100903.41
2023-04-10T01:04:16.435Z,100901.00
2023-04-10T01:07:01.788Z,100897.91
2023-04-10T01:09:47.316Z,100896.03
2023-04-10T01:12:14.240Z,100888.13
2023-04-10T01:14:50.163Z,100898.38
2023-04-10T01:17:23.088Z,100897.56
2023-04-10T01:20:04.760Z,100888.72
2023-04-10T01:22:36.856Z,100893.06
2023-04-10T01:25:15.823Z,100896.63
2023-04-10T01:28:01.606Z,100894.22
2023-04-10T01:30:29.249Z,100898.38
2023-04-10T01:32:59.172Z,100889.69
2023-04-10T01:35:27.051Z,100885.44
2023-04-10T01:37:56.212Z,100890.78
2023-04-10T01:40:25.639Z,100889.88
2023-04-10T01:42:53.530Z,100888.94
2023-04-10T01:45:25.980Z,100890.63
2023-04-10T01:47:53.186Z,100892.38
2023-04-10T01:50:23.504Z,100893.41
2023-04-10T01:52:51.833Z,100891.63
2023-04-10T01:55:22.444Z,100882.91
2023-04-10T01:57:55.045Z,100887.88
2023-04-10T02:00:24.318Z,100883.53
2023-04-10T02:02:51.977Z,100880.28
2023-04-10T02:05:19.501Z,100878.56
2023-04-10T02:08:01.691Z,100876.97
2023-04-10T02:10:31.631Z,100870.84
2023-04-10T02:13:04.403Z,100872.72
2023-04-10T02:15:32.598Z,100866.69
2023-04-10T02:18:01.161Z,100870.22
2023-04-10T02:20:29.028Z,100865.81
2023-04-10T02:22:56.799Z,100864.03
2023-04-10T02:25:25.143Z,100863.16
2023-04-10T02:27:52.155Z,100856.06
2023-04-10T02:30:19.316Z,100863.09
2023-04-10T02:32:46.383Z,100858.56
2023-04-10T02:35:13.287Z,100859.56
2023-04-10T02:37:40.420Z,100859.22
2023-04-10T02:40:08.499Z,100865.22
2023-04-10T02:42:44.944Z,100860.13
2023-04-10T02:45:11.858Z,100862.84
2023-04-10T02:47:42.679Z,100861.41
2023-04-10T02:50:09.975Z,100857.94
2023-04-10T02:52:38.987Z,100857.88
2023-04-10T02:55:06.287Z,100857.94
2023-04-10T02:57:36.445Z,100860.59
2023-04-10T03:00:05.318Z,100859.75
2023-04-10T03:02:53.984Z,100855.25
2023-04-10T03:05:21.769Z,100851.69
2023-04-10T03:07:48.713Z,100850.56
2023-04-10T03:10:15.974Z,100857.38
2023-04-10T03:12:43.037Z,100854.75
2023-04-10T03:15:10.110Z,100855.75
2023-04-10T03:17:37.023Z,100858.56
2023-04-10T03:20:06.572Z,100856.81
2023-04-10T03:22:34.692Z,100854.09
2023-04-10T03:25:02.637Z,100858.41
2023-04-10T03:27:32.322Z,100849.66
2023-04-10T03:29:59.277Z,100847.78
2023-04-10T03:32:28.194Z,100839.06
2023-04-10T03:34:55.261Z,100842.69
2023-04-10T03:37:22.101Z,100836.78
2023-04-10T03:39:49.017Z,100840.28
2023-04-10T03:42:15.871Z,100831.31
2023-04-10T03:44:42.828Z,100830.50
2023-04-10T03:47:10.154Z,100834.72
2023-04-10T03:49:37.091Z,100824.50
2023-04-10T03:52:06.512Z,100828.97
2023-04-10T03:54:33.630Z,100834.16
2023-04-10T03:57:01.678Z,100823.00
2023-04-10T03:59:37.823Z,100832.69
2023-04-10T04:02:10.331Z,100837.09
2023-04-10T04:04:37.627Z,100830.94
2023-04-10T04:07:33.774Z,100842.34
2023-04-10T04:10:10.890Z,100838.84
2023-04-10T04:12:48.695Z,100841.44
2023-04-10T04:15:38.577Z,100847.59
2023-04-10T04:18:16.872Z,100845.00
2023-04-10T04:20:51.456Z,100851.09
2023-04-10T04:23:53.704Z,100841.47
2023-04-10T04:26:43.852Z,100840.56
2023-04-10T04:29:29.355Z,100844.97
2023-04-10T04:32:14.800Z,100849.34
2023-04-10T04:34:59.132Z,100849.31
2023-04-10T04:37:44.609Z,100852.84
2023-04-10T04:40:31.787Z,100846.56
2023-04-10T04:43:05.074Z,100852.78
2023-04-10T04:45:50.473Z,100852.81
2023-04-10T04:48:37.549Z,100850.09
2023-04-10T04:51:12.972Z,100835.81
2023-04-10T04:53:50.148Z,100843.66
2023-04-10T04:56:55.693Z,100843.56
2023-04-10T04:59:30.846Z,100843.66
2023-04-10T05:02:23.189Z,100846.53
2023-04-10T05:05:16.425Z,100843.84
2023-04-10T05:07:53.678Z,100843.63
2023-04-10T05:10:40.746Z,100845.44
2023-04-10T05:13:33.873Z,100848.03
2023-04-10T05:16:14.328Z,100852.34
2023-04-10T05:19:01.439Z,100847.97
2023-04-10T05:21:46.734Z,100851.56
2023-04-10T05:24:32.129Z,100848.59
2023-04-10T05:27:25.612Z,100842.28
2023-04-10T05:30:21.311Z,100851.63
2023-04-10T05:33:06.815Z,100847.72
2023-04-10T05:35:47.978Z,100851.72
2023-04-10T05:38:31.003Z,100853.09
2023-04-10T05:41:18.173Z,100855.81
2023-04-10T05:44:03.550Z,100847.53
2023-04-10T05:46:49.062Z,100850.00
2023-04-10T05:49:38.812Z,100853.72
2023-04-10T05:52:28.459Z,100852.88
2023-04-10T05:55:24.601Z,100858.22
2023-04-10T05:58:03.938Z,100856.19
2023-04-10T06:00:38.426Z,100855.28
2023-04-10T06:03:43.924Z,100859.69
2023-04-10T06:06:11.662Z,100861.59
2023-04-10T06:08:40.833Z,100859.78
2023-04-10T06:11:07.844Z,100866.66
2023-04-10T06:13:35.239Z,100856.50
2023-04-10T06:16:03.113Z,100859.56
2023-04-10T06:18:31.634Z,100856.69
2023-04-10T06:21:00.459Z,100857.03
2023-04-10T06:23:27.990Z,100858.25
2023-04-10T06:25:55.628Z,100864.53
2023-04-10T06:28:22.714Z,100868.44
2023-04-10T06:30:54.739Z,100871.03
2023-04-10T06:33:29.376Z,100870.44
2023-04-10T06:35:57.512Z,100876.50
2023-04-10T06:38:24.689Z,100871.03
2023-04-10T06:40:52.227Z,100882.34
2023-04-10T06:43:19.183Z,100875.13
2023-04-10T06:45:46.155Z,100882.28
2023-04-10T06:48:13.075Z,100885.25
2023-04-10T06:50:39.891Z,100889.34
2023-04-10T06:53:06.712Z,100877.94
2023-04-10T06:55:33.572Z,100880.75
2023-04-10T06:58:00.614Z,100877.66
2023-04-10T07:00:27.568Z,100874.09
2023-04-10T07:02:54.709Z,100876.22
2023-04-10T07:05:22.446Z,100878.91
2023-04-10T07:07:50.768Z,100890.53
2023-04-10T07:10:17.692Z,100880.59
2023-04-10T07:12:44.619Z,100875.47
2023-04-10T07:15:12.636Z,100876.53
2023-04-10T07:17:39.627Z,100870.75
2023-04-10T07:20:06.894Z,100872.75
2023-04-10T07:22:33.848Z,100878.56
2023-04-10T07:25:00.778Z,100879.25
2023-04-10T07:27:28.050Z,100876.00
2023-04-10T07:29:55.448Z,100876.47
2023-04-10T07:32:22.715Z,100874.94
2023-04-10T07:34:49.951Z,100877.59
2023-04-10T07:37:18.251Z,100872.19
2023-04-10T07:39:45.370Z,100871.53
2023-04-10T07:42:12.285Z,100879.13
2023-04-10T07:44:39.244Z,100863.16
2023-04-10T07:47:06.154Z,100872.06
2023-04-10T07:49:33.028Z,100865.53
2023-04-10T07:51:59.977Z,100865.66
2023-04-10T07:54:26.825Z,100859.31
2023-04-10T07:56:53.754Z,100854.88
2023-04-10T07:59:21.012Z,100853.88
2023-04-10T08:01:48.082Z,100849.25
2023-04-10T08:04:15.314Z,100843.97
2023-04-10T08:06:42.271Z,100851.19
2023-04-10T08:09:09.144Z,100848.31
2023-04-10T08:11:38.409Z,100844.00
2023-04-10T08:14:06.005Z,100828.41
2023-04-10T08:16:33.725Z,100837.69
2023-04-10T08:19:01.005Z,100831.56
2023-04-10T08:21:28.721Z,100824.84
2023-04-10T08:23:56.418Z,100829.66
2023-04-10T08:26:23.677Z,100829.59
2023-04-10T08:28:51.327Z,100830.03
2023-04-10T08:31:18.680Z,100827.47
2023-04-10T08:33:45.772Z,100822.97
2023-04-10T08:36:13.369Z,100838.50
2023-04-10T08:38:40.375Z,100829.56
2023-04-10T08:41:07.451Z,100830.13
2023-04-10T08:43:35.607Z,100833.06
2023-04-10T08:46:02.907Z,100827.19
2023-04-10T08:48:38.356Z,100825.53
2023-04-10T08:51:08.780Z,100823.03
2023-04-10T08:53:40.066Z,100814.09
2023-04-10T08:56:07.800Z,100815.28
2023-04-10T08:58:35.913Z,100813.53
2023-04-10T09:01:02.841Z,100815.25
2023-04-10T09:03:30.350Z,100804.34
2023-04-10T09:05:59.037Z,100799.72
2023-04-10T09:08:26.055Z,100799.41
2023-04-10T09:10:54.513Z,100790.97
2023-04-10T09:13:36.165Z,100801.19
2023-04-10T09:16:03.265Z,100789.81
2023-04-10T09:18:50.057Z,100786.19
2023-04-10T09:21:20.741Z,100772.84
2023-04-10T09:23:48.116Z,100769.91
2023-04-10T09:26:25.082Z,100775.19
2023-04-10T09:28:58.977Z,100772.88
2023-04-10T09:31:30.685Z,100767.19
2023-04-10T09:34:17.888Z,100773.34
2023-04-10T09:36:55.161Z,100769.88
2023-04-10T09:39:22.480Z,100765.34
2023-04-10T09:41:50.852Z,100764.28
2023-04-10T09:44:19.822Z,100757.63
2023-04-10T09:46:47.025Z,100751.94
2023-04-10T09:49:13.981Z,100747.84
2023-04-10T09:51:40.862Z,100757.63
2023-04-10T09:54:08.020Z,100762.72
2023-04-10T09:56:37.170Z,100751.31
2023-04-10T09:59:05.088Z,100757.19
2023-04-10T10:01:34.841Z,100740.84
2023-04-10T10:04:05.147Z,100750.13
2023-04-10T10:06:32.689Z,100739.22
2023-04-10T10:09:04.087Z,100736.88
2023-04-10T10:11:35.576Z,100724.16
2023-04-10T10:14:13.181Z,100732.63
2023-04-10T10:16:43.287Z,100730.03
2023-04-10T10:19:33.238Z,100726.69
2023-04-10T10:22:01.415Z,100718.81
2023-04-10T10:24:29.665Z,100713.88
2023-04-10T10:26:57.463Z,100726.41
2023-04-10T10:29:24.453Z,100716.72
2023-04-10T10:31:53.291Z,100721.03
2023-04-10T10:34:20.552Z,100715.88
2023-04-10T10:36:47.451Z,100714.50
2023-04-10T10:39:30.582Z,100709.00
2023-04-10T10:42:01.842Z,100711.00
2023-04-10T10:44:55.241Z,100703.59
2023-04-10T10:47:30.425Z,100693.94
2023-04-10T10:49:58.612Z,100687.88
2023-04-10T10:52:45.368Z,100683.69
2023-04-10T10:55:24.384Z,100674.69
2023-04-10T10:57:54.362Z,100661.09
2023-04-10T11:00:24.791Z,100673.91
2023-04-10T11:03:10.791Z,100668.59
2023-04-10T11:05:54.332Z,100666.97
2023-04-10T11:08:35.985Z,100663.53
2023-04-10T11:11:03.058Z,100663.59
2023-04-10T11:13:30.006Z,100656.03
2023-04-10T11:15:57.187Z,100653.84
2023-04-10T11:18:42.725Z,100654.69
2023-04-10T11:21:10.707Z,100663.97
2023-04-10T11:23:39.015Z,100653.88
2023-04-10T11:26:06.529Z,100647.56
2023-04-10T11:28:33.533Z,100644.19
2023-04-10T11:31:19.910Z,100651.78
2023-04-10T11:33:52.232Z,100647.06
2023-04-10T11:36:20.639Z,100646.72
2023-04-10T11:39:13.757Z,100648.13
2023-04-10T11:41:42.161Z,100643.25
2023-04-10T11:44:13.201Z,100646.50
2023-04-10T11:46:41.943Z,100646.28
2023-04-10T11:49:11.957Z,100646.56
2023-04-10T11:51:39.830Z,100635.78
2023-04-10T11:54:19.737Z,100637.19
2023-04-10T11:56:57.132Z,100635.84
2023-04-10T11:59:24.289Z,100642.97
2023-04-10T12:01:54.417Z,100638.72
2023-04-10T12:04:22.509Z,100626.84
2023-04-10T12:06:52.870Z,100630.78
2023-04-10T12:09:20.842Z,100632.72
2023-04-10T12:11:54.850Z,100628.41
2023-04-10T12:14:22.475Z,100625.38
2023-04-10T12:16:52.942Z,100631.25
2023-04-10T12:19:20.862Z,100625.59
2023-04-10T12:21:48.272Z,100620.53
2023-04-10T12:24:35.039Z,100610.09
2023-04-10T12:27:02.822Z,100605.34
2023-04-10T12:29:30.156Z,100599.06
2023-04-10T12:31:57.051Z,100595.09
2023-04-10T12:34:24.207Z,100585.84
2023-04-10T12:36:54.258Z,100593.91
2023-04-10T12:39:25.689Z,100595.94
2023-04-10T12:41:52.616Z,100589.16
2023-04-10T12:44:20.673Z,100590.84
2023-04-10T12:46:47.631Z,100585.22
2023-04-10T12:49:15.712Z,100584.59
2023-04-10T12:51:43.823Z,100577.44
2023-04-10T12:54:10.698Z,100565.03
2023-04-10T12:56:41.368Z,100567.84
2023-04-10T12:59:08.337Z,100569.28
2023-04-10T13:01:35.642Z,100567.78
2023-04-10T13:04:02.598Z,100574.06
2023-04-10T13:06:29.522Z,100557.03
2023-04-10T13:08:57.464Z,100554.31
2023-04-10T13:11:24.388Z,100556.53
2023-04-10T13:13:52.799Z,100556.09
2023-04-10T13:16:19.747Z,100556.97
2023-04-10T13:18:46.611Z,100549.84
2023-04-10T13:21:18.480Z,100549.66
2023-04-10T13:23:45.427Z,100553.50
2023-04-10T13:26:12.295Z,100549.81
2023-04-10T13:28:39.353Z,100547.84
2023-04-10T13:31:06.492Z,100552.81
2023-04-10T13:33:33.399Z,100555.50
2023-04-10T13:36:00.343Z,100548.72
2023-04-10T13:38:27.800Z,100554.94
2023-04-10T13:40:54.783Z,100554.03
2023-04-10T13:43:21.786Z,100556.59
2023-04-10T13:45:50.144Z,100555.13
2023-04-10T13:48:24.372Z,100556.00
2023-04-10T13:50:54.025Z,100551.63
2023-04-10T13:53:20.955Z,100547.81
2023-04-10T13:55:50.218Z,100544.47
2023-04-10T13:58:17.174Z,100536.16
2023-04-10T14:00:44.827Z,100540.16
2023-04-10T14:03:12.503Z,100537.22
2023-04-10T14:05:39.617Z,100527.91
2023-04-10T14:08:06.646Z,100528.63
2023-04-10T14:10:33.519Z,100533.41
2023-04-10T14:13:00.500Z,100528.94
2023-04-10T14:15:27.522Z,100529.88
2023-04-10T14:17:54.488Z,100520.44
2023-04-10T14:20:21.552Z,100521.56
2023-04-10T14:22:48.471Z,100519.59
2023-04-10T14:25:18.140Z,100512.16
2023-04-10T14:27:45.720Z,100523.34
2023-04-10T14:30:12.871Z,100521.22
2023-04-10T14:32:40.195Z,100524.47
2023-04-10T14:35:07.476Z,100532.03
2023-04-10T14:37:34.359Z,100525.28
2023-04-10T14:40:01.380Z,100524.59
2023-04-10T14:42:28.636Z,100514.19
2023-04-10T14:44:55.532Z,100511.28
2023-04-10T14:47:22.890Z,100520.66
2023-04-10T14:49:49.807Z,100519.25
2023-04-10T14:52:16.633Z,100516.34
2023-04-10T14:54:43.484Z,100510.84
2023-04-10T14:57:11.109Z,100510.88
2023-04-10T14:59:38.008Z,100510.34
2023-04-10T15:02:04.929Z,100513.28
2023-04-10T15:04:31.965Z,100507.16
2023-04-10T15:06:58.901Z,100508.31
2023-04-10T15:09:25.940Z,100515.16
2023-04-10T15:11:52.860Z,100509.63
2023-04-10T15:14:19.808Z,100508.72
2023-04-10T15:16:47.561Z,100509.91
2023-04-10T15:19:14.675Z,100507.09
2023-04-10T15:21:41.614Z,100506.84
2023-04-10T15:24:08.508Z,100515.22
2023-04-10T15:26:35.457Z,100513.00
2023-04-10T15:29:02.395Z,100510.81
2023-04-10T15:31:29.413Z,100506.19
2023-04-10T15:33:56.596Z,100511.16
2023-04-10T15:36:23.573Z,100512.56
2023-04-10T15:38:50.509Z,100504.28
2023-04-10T15:41:17.605Z,100504.72
2023-04-10T15:43:44.623Z,100509.63
2023-04-10T15:46:11.606Z,100505.28
2023-04-10T15:48:38.583Z,100503.84
2023-04-10T15:51:06.414Z,100504.09
2023-04-10T15:53:34.343Z,100506.06
2023-04-10T15:56:01.258Z,100506.00
2023-04-10T15:58:28.152Z,100504.69
2023-04-10T16:00:55.161Z,100505.19
2023-04-10T16:03:22.371Z,100507.16
2023-04-10T16:05:49.649Z,100506.78
2023-04-10T16:08:16.586Z,100503.94
2023-04-10T16:10:43.752Z,100507.69
2023-04-10T16:13:10.802Z,100501.47
2023-04-10T16:15:38.140Z,100498.06
2023-04-10T16:18:05.523Z,100498.06
2023-04-10T16:20:32.483Z,100499.22
2023-04-10T16:22:59.752Z,100497.03
2023-04-10T16:25:30.840Z,100495.13
2023-04-10T16:27:57.819Z,100491.50
2023-04-10T16:30:24.814Z,100493.06
2023-04-10T16:32:51.901Z,100483.66
2023-04-10T16:35:19.467Z,100489.03
2023-04-10T16:37:46.601Z,100485.38
2023-04-10T16:40:13.862Z,100481.81
2023-04-10T16:42:40.976Z,100482.16
2023-04-10T16:45:08.601Z,100479.81
2023-04-10T16:47:35.909Z,100473.38
2023-04-10T16:50:02.932Z,100469.19
2023-04-10T16:52:29.946Z,100473.34
2023-04-10T16:54:56.809Z,100465.66
2023-04-10T16:57:23.749Z,100465.53
2023-04-10T16:59:50.849Z,100463.69
2023-04-10T17:02:17.962Z,100469.78
2023-04-10T17:04:44.849Z,100470.50
2023-04-10T17:07:11.781Z,100470.28
2023-04-10T17:09:38.634Z,100456.31
2023-04-10T17:12:05.548Z,100460.06
2023-04-10T17:14:32.555Z,100453.72
2023-04-10T17:16:59.718Z,100460.56
2023-04-10T17:19:26.743Z,100453.09
2023-04-10T17:21:54.594Z,100455.94
2023-04-10T17:24:21.535Z,100456.06
2023-04-10T17:26:49.007Z,100453.13
2023-04-10T17:29:16.070Z,100447.84
2023-04-10T17:31:43.135Z,100454.28
2023-04-10T17:34:10.194Z,100455.28
2023-04-10T17:36:37.164Z,100455.88
2023-04-10T17:39:04.143Z,100453.03
2023-04-10T17:41:31.107Z,100451.16
2023-04-10T17:43:58.350Z,100458.84
2023-04-10T17:46:25.368Z,100460.56
2023-04-10T17:48:53.063Z,100465.66
2023-04-10T17:51:20.177Z,100466.22
2023-04-10T17:53:47.109Z,100464.59
2023-04-10T17:56:18.628Z,100464.66
2023-04-10T17:58:45.803Z,100456.72
2023-04-10T18:01:13.244Z,100459.69
2023-04-10T18:03:42.520Z,100462.50
2023-04-10T18:06:09.472Z,100449.25
2023-04-10T18:08:36.451Z,100455.47
2023-04-10T18:11:03.342Z,100454.53
2023-04-10T18:13:30.358Z,100449.88
2023-04-10T18:15:57.262Z,100455.63
2023-04-10T18:18:24.199Z,100451.09
2023-04-10T18:20:51.181Z,100436.31
2023-04-10T18:23:18.067Z,100446.06
2023-04-10T18:25:54.352Z,100445.88
2023-04-10T18:28:22.165Z,100440.47
2023-04-10T18:30:49.360Z,100441.31
2023-04-10T18:33:20.706Z,100440.44
2023-04-10T18:35:47.654Z,100437.84
2023-04-10T18:38:14.488Z,100443.34
2023-04-10T18:40:41.349Z,100441.59
2023-04-10T18:43:08.250Z,100438.06
2023-04-10T18:45:35.584Z,100440.59
2023-04-10T18:48:03.024Z,100442.22
2023-04-10T18:50:30.840Z,100444.59
2023-04-10T18:52:57.774Z,100445.94
2023-04-10T18:55:24.663Z,100438.88
2023-04-10T18:57:51.490Z,100437.03
2023-04-10T19:00:18.430Z,100437.66
2023-04-10T19:02:45.467Z,100437.00
2023-04-10T19:05:14.504Z,100431.91
2023-04-10T19:07:47.285Z,100432.25
2023-04-10T19:10:20.131Z,100432.59
2023-04-10T19:12:48.157Z,100438.34
2023-04-10T19:15:15.161Z,100432.94
2023-04-10T19:17:42.205Z,100443.25
2023-04-10T19:20:09.738Z,100444.50
2023-04-10T19:22:36.669Z,100442.50
2023-04-10T19:25:03.701Z,100438.13
2023-04-10T19:27:30.862Z,100431.06
2023-04-10T19:29:57.772Z,100430.16
2023-04-10T19:32:24.717Z,100433.63
2023-04-10T19:34:53.416Z,100433.75
2023-04-10T19:37:23.510Z,100433.63
2023-04-10T19:39:50.553Z,100437.53
2023-04-10T19:42:17.432Z,100439.97
2023-04-10T19:44:44.297Z,100434.19
2023-04-10T19:47:11.334Z,100431.41
2023-04-10T19:49:38.288Z,100430.19
2023-04-10T19:52:05.224Z,100421.25
2023-04-10T19:54:32.109Z,100421.38
2023-04-10T19:56:59.123Z,100415.56
2023-04-10T19:59:26.059Z,100405.81
2023-04-10T20:01:53.148Z,100405.22
2023-04-10T20:04:20.269Z,100399.78
2023-04-10T20:06:48.004Z,100390.59
2023-04-10T20:09:15.793Z,100382.81
2023-04-10T20:11:43.098Z,100384.53
2023-04-10T20:14:10.810Z,100380.03
2023-04-10T20:16:37.869Z,100377.03
2023-04-10T20:19:04.853Z,100376.13
2023-04-10T20:21:33.118Z,100380.16
2023-04-10T20:24:00.117Z,100383.34
2023-04-10T20:26:26.958Z,100378.44
2023-04-10T20:28:54.794Z,100369.81
2023-04-10T20:31:21.940Z,100366.09
2023-04-10T20:33:48.903Z,100364.41
2023-04-10T20:36:15.786Z,100366.25
2023-04-10T20:38:42.706Z,100361.66
2023-04-10T20:41:09.709Z,100358.91
2023-04-10T20:43:36.657Z,100355.72
2023-04-10T20:46:04.427Z,100351.59
2023-04-10T20:48:31.566Z,100348.84
2023-04-10T20:50:58.419Z,100345.41
2023-04-10T20:53:26.705Z,100337.00
2023-04-10T20:55:54.232Z,100330.69
2023-04-10T20:58:21.384Z,100333.34
2023-04-10T21:00:51.282Z,100327.25
2023-04-10T21:03:18.436Z,100332.31
2023-04-10T21:05:45.515Z,100326.28
2023-04-10T21:08:12.765Z,100324.63
2023-04-10T21:10:48.642Z,100335.03
2023-04-10T21:13:15.524Z,100327.22
2023-04-10T21:15:42.600Z,100325.50
2023-04-10T21:18:09.857Z,100322.59
2023-04-10T21:20:36.793Z,100319.22
2023-04-10T21:23:03.700Z,100318.41
2023-04-10T21:25:31.293Z,100312.19
2023-04-10T21:27:58.367Z,100306.09
2023-04-10T21:30:25.282Z,100304.25
2023-04-10T21:32:52.299Z,100300.97
2023-04-10T21:35:19.304Z,100295.34
2023-04-10T21:37:46.388Z,100287.09
2023-04-10T21:40:13.339Z,100282.00
2023-04-10T21:42:40.293Z,100272.50
2023-04-10T21:45:07.438Z,100270.66
2023-04-10T21:47:34.299Z,100263.91
2023-04-10T21:50:01.169Z,100260.34
2023-04-10T21:52:28.034Z,100264.59
2023-04-10T21:54:54.881Z,100261.41
2023-04-10T21:57:21.735Z,100259.50
2023-04-10T21:59:48.732Z,100255.00
2023-04-10T22:02:15.767Z,100259.91
2023-04-10T22:04:54.065Z,100259.84
2023-04-10T22:07:21.900Z,100262.38
2023-04-10T22:09:48.865Z,100252.72
2023-04-10T22:12:15.895Z,100257.00
2023-04-10T22:14:42.826Z,100253.41
2023-04-10T22:17:09.828Z,100253.59
2023-04-10T22:19:36.820Z,100240.25
2023-04-10T22:22:03.696Z,100246.44
2023-04-10T22:24:33.860Z,100243.66
2023-04-10T22:27:01.074Z,100240.94
2023-04-10T22:29:28.090Z,100231.66
2023-04-10T22:31:56.188Z,100232.56
2023-04-10T22:34:24.542Z,100225.47
2023-04-10T22:36:52.115Z,100227.34
2023-04-10T22:39:19.092Z,100216.66
2023-04-10T22:41:46.069Z,100216.53
2023-04-10T22:44:12.920Z,100215.56
2023-04-10T22:46:39.804Z,100207.88
2023-04-10T22:49:07.130Z,100208.81
2023-04-10T22:51:33.988Z,100204.41
2023-04-10T22:54:01.091Z,100202.06
2023-04-10T22:56:29.563Z,100200.25
2023-04-10T22:58:56.814Z,100188.66
2023-04-10T23:01:23.900Z,100170.38
2023-04-10T23:03:53.998Z,100170.41
2023-04-10T23:06:21.077Z,100178.31
2023-04-10T23:08:47.971Z,100180.19
2023-04-10T23:11:14.921Z,100185.28
2023-04-10T23:13:43.097Z,100173.06
2023-04-10T23:16:10.242Z,100164.22
2023-04-10T23:18:37.611Z,100159.84
2023-04-10T23:21:05.914Z,100149.38
2023-04-10T23:23:32.784Z,100157.25
2023-04-10T23:26:00.409Z,100162.22
2023-04-10T23:28:27.782Z,100150.25
2023-04-10T23:30:54.844Z,100146.56
2023-04-10T23:33:21.787Z,100154.44
2023-04-10T23:35:48.716Z,100148.56
2023-04-10T23:38:15.928Z,100140.53
2023-04-10T23:40:42.764Z,100143.09
2023-04-10T23:43:09.657Z,100137.13
2023-04-10T23:45:36.527Z,100140.47
2023-04-10T23:48:03.488Z,100132.56
2023-04-10T23:50:30.479Z,100135.31
2023-04-10T23:52:59.451Z,100138.59
2023-04-10T23:55:26.469Z,100128.94
2023-04-10T23:57:53.427Z,100124.81
